Time;durP1;ratioP1;P1;durP2;ratioP2;P2;SDS_P1;SDS_P2;PMS_P1;PMS_P2;Temp;Humidity;BMP_temperature;BMP_pressure;BME280_temperature;BME280_humidity;BME280_pressure;Samples;Min_cycle;Max_cycle;Signal;HPM_P1;HPM_P2
2022/07/15 00:01:42;;;;;;;7.43;1.55;;;;;;;;;;5011684;28;97310;-74
2022/07/15 00:04:10;;;;;;;9.20;1.80;;;;;;;;;;5012588;28;95318;-74
2022/07/15 00:06:36;;;;;;;5.88;1.60;;;;;;;;;;5011493;28;95810;-74
2022/07/15 00:09:02;;;;;;;5.97;2.00;;;;;;;;;;5014016;28;97229;-74
2022/07/15 00:11:29;;;;;;;6.72;1.80;;;;;;;;;;5010933;28;96823;-74
2022/07/15 00:13:55;;;;;;;11.07;1.70;;;;;;;;;;4984581;28;97403;-74
2022/07/15 00:16:28;;;;;;;11.38;2.22;;;;;;;;;;5004956;28;95476;-74
2022/07/15 00:18:54;;;;;;;6.35;1.67;;;;;;;;;;5010129;28;95821;-74
2022/07/15 00:21:21;;;;;;;3.58;1.45;;;;;;;;;;5012246;28;97356;-74
2022/07/15 00:23:47;;;;;;;5.20;1.70;;;;;;;;;;5009122;28;95634;-73
2022/07/15 00:26:13;;;;;;;4.50;1.63;;;;;;;;;;5012601;28;97048;-74
2022/07/15 00:28:40;;;;;;;9.05;1.52;;;;;;;;;;5012164;28;97524;-73
2022/07/15 00:31:06;;;;;;;5.05;1.60;;;;;;;;;;5013948;28;95369;-74
2022/07/15 00:33:32;;;;;;;6.75;2.00;;;;;;;;;;5010272;28;97242;-74
2022/07/15 00:35:59;;;;;;;8.43;1.83;;;;;;;;;;5011927;28;95297;-74
2022/07/15 00:38:25;;;;;;;6.40;1.70;;;;;;;;;;5011690;28;95989;-74
2022/07/15 00:40:52;;;;;;;5.38;1.48;;;;;;;;;;5011819;28;96098;-74
2022/07/15 00:43:18;;;;;;;9.23;1.88;;;;;;;;;;5010301;28;95113;-74
2022/07/15 00:45:45;;;;;;;4.72;1.60;;;;;;;;;;5008150;28;96852;-74
2022/07/15 00:48:11;;;;;;;7.15;2.17;;;;;;;;;;5011783;28;97341;-74
2022/07/15 00:50:45;;;;;;;9.40;2.03;;;;;;;;;;5014857;28;96012;-74
2022/07/15 00:53:16;;;;;;;8.05;1.98;;;;;;;;;;5009289;28;97988;-74
2022/07/15 00:55:43;;;;;;;10.35;1.90;;;;;;;;;;5010900;28;95400;-74
2022/07/15 00:58:17;;;;;;;5.53;1.75;;;;;;;;;;5011562;28;96612;-74
2022/07/15 01:00:44;;;;;;;5.65;1.60;;;;;;;;;;5008754;28;96153;-74
2022/07/15 01:03:11;;;;;;;9.32;1.63;;;;;;;;;;5010218;28;95515;-74
2022/07/15 01:05:37;;;;;;;5.47;1.50;;;;;;;;;;5010053;28;96741;-74
2022/07/15 01:08:04;;;;;;;9.63;1.92;;;;;;;;;;5011705;28;97248;-74
2022/07/15 01:10:30;;;;;;;4.30;1.65;;;;;;;;;;5010583;28;95175;-74
2022/07/15 01:12:57;;;;;;;6.45;1.83;;;;;;;;;;5010907;28;96738;-74
2022/07/15 01:15:25;;;;;;;5.65;1.80;;;;;;;;;;5008368;28;96180;-74
2022/07/15 01:17:51;;;;;;;6.95;1.95;;;;;;;;;;5012706;28;96885;-74
2022/07/15 01:20:17;;;;;;;3.58;1.52;;;;;;;;;;5013700;28;96209;-74
2022/07/15 01:22:44;;;;;;;9.25;2.20;;;;;;;;;;5014198;28;95329;-74
2022/07/15 01:25:10;;;;;;;8.10;2.00;;;;;;;;;;5010250;28;97055;-74
2022/07/15 01:27:37;;;;;;;3.65;1.55;;;;;;;;;;5014685;28;97337;-74
2022/07/15 01:30:04;;;;;;;7.57;1.80;;;;;;;;;;5015544;28;95397;-74
2022/07/15 01:32:31;;;;;;;12.57;1.98;;;;;;;;;;5013728;28;96832;-74
2022/07/15 01:34:57;;;;;;;22.83;2.00;;;;;;;;;;5015334;28;97271;-74
2022/07/15 01:37:24;;;;;;;8.00;1.90;;;;;;;;;;5013433;28;98135;-74
2022/07/15 01:39:50;;;;;;;12.50;2.05;;;;;;;;;;5014209;28;97328;-74
2022/07/15 01:42:16;;;;;;;7.57;2.38;;;;;;;;;;5014142;28;95253;-73
2022/07/15 01:44:43;;;;;;;11.70;2.20;;;;;;;;;;5010719;28;95370;-74
2022/07/15 01:47:09;;;;;;;7.05;1.95;;;;;;;;;;5011568;28;97305;-74
2022/07/15 01:49:36;;;;;;;12.05;1.88;;;;;;;;;;5013300;28;95414;-74
2022/07/15 01:52:03;;;;;;;6.38;1.85;;;;;;;;;;5013637;28;97245;-74
2022/07/15 01:54:31;;;;;;;7.97;1.80;;;;;;;;;;5012017;28;97415;-74
2022/07/15 01:56:57;;;;;;;8.77;1.83;;;;;;;;;;5017293;28;95856;-74
2022/07/15 01:59:24;;;;;;;5.20;1.67;;;;;;;;;;5013440;28;96931;-73
2022/07/15 02:01:52;;;;;;;7.05;2.13;;;;;;;;;;5012961;28;95499;-75
2022/07/15 02:04:19;;;;;;;9.13;1.80;;;;;;;;;;5012924;28;96683;-72
2022/07/15 02:06:45;;;;;;;5.65;1.85;;;;;;;;;;5011953;28;97424;-76
2022/07/15 02:09:12;;;;;;;7.15;2.13;;;;;;;;;;5013859;28;95446;-73
2022/07/15 02:11:38;;;;;;;8.10;1.95;;;;;;;;;;5013481;28;96806;-75
2022/07/15 02:14:05;;;;;;;9.65;2.05;;;;;;;;;;5012445;28;97321;-75
2022/07/15 02:16:32;;;;;;;4.78;1.73;;;;;;;;;;5010476;28;95334;-74
2022/07/15 02:19:00;;;;;;;4.95;1.80;;;;;;;;;;5016912;28;96929;-75
2022/07/15 02:21:26;;;;;;;5.78;1.90;;;;;;;;;;5012472;28;95471;-74
2022/07/15 02:23:53;;;;;;;6.30;2.08;;;;;;;;;;4994261;28;96824;-74
2022/07/15 02:26:19;;;;;;;4.85;1.83;;;;;;;;;;5008179;28;97593;-74
2022/07/15 02:28:46;;;;;;;6.53;1.90;;;;;;;;;;5013602;28;95408;-74
2022/07/15 02:31:12;;;;;;;5.25;2.00;;;;;;;;;;5011881;28;96759;-74
2022/07/15 02:33:39;;;;;;;3.67;1.73;;;;;;;;;;5013294;28;97287;-74
2022/07/15 02:36:06;;;;;;;8.63;1.50;;;;;;;;;;5011621;28;96711;-75
2022/07/15 02:38:32;;;;;;;10.07;2.20;;;;;;;;;;5013546;28;97211;-74
2022/07/15 02:40:59;;;;;;;6.93;1.83;;;;;;;;;;5014597;28;96276;-75
2022/07/15 02:43:25;;;;;;;9.93;2.13;;;;;;;;;;5011174;28;96749;-74
2022/07/15 02:45:51;;;;;;;6.63;1.83;;;;;;;;;;5011574;28;97525;-74
2022/07/15 02:48:18;;;;;;;10.40;2.00;;;;;;;;;;5012874;28;95175;-74
2022/07/15 02:50:44;;;;;;;7.10;1.73;;;;;;;;;;5012726;28;96292;-73
2022/07/15 02:53:11;;;;;;;6.40;1.92;;;;;;;;;;5012448;28;97384;-73
2022/07/15 02:55:37;;;;;;;12.23;2.05;;;;;;;;;;5009200;28;95814;-74
2022/07/15 02:58:03;;;;;;;7.40;1.80;;;;;;;;;;5013068;28;96650;-74
2022/07/15 03:00:30;;;;;;;6.63;1.88;;;;;;;;;;5016398;28;97821;-74
2022/07/15 03:02:56;;;;;;;8.85;1.70;;;;;;;;;;5013279;28;97150;-74
2022/07/15 03:05:23;;;;;;;7.45;1.58;;;;;;;;;;5008822;28;97364;-74
2022/07/15 03:07:49;;;;;;;3.25;1.55;;;;;;;;;;5012089;28;96414;-74
2022/07/15 03:10:16;;;;;;;5.72;1.85;;;;;;;;;;5011624;28;96779;-74
2022/07/15 03:12:43;;;;;;;7.00;1.77;;;;;;;;;;5012426;28;97373;-73
2022/07/15 03:15:11;;;;;;;6.00;1.80;;;;;;;;;;5010186;28;95403;-73
2022/07/15 03:17:39;;;;;;;7.22;2.00;;;;;;;;;;5010153;28;96746;-74
2022/07/15 03:20:06;;;;;;;8.98;1.83;;;;;;;;;;5011920;28;97310;-74
2022/07/15 03:22:33;;;;;;;6.53;1.70;;;;;;;;;;5014834;28;95341;-74
2022/07/15 03:24:59;;;;;;;8.27;1.98;;;;;;;;;;5012020;28;96476;-74
2022/07/15 03:27:25;;;;;;;7.95;2.20;;;;;;;;;;5010494;28;95456;-74
2022/07/15 03:29:52;;;;;;;8.85;2.22;;;;;;;;;;5011406;28;97083;-74
2022/07/15 03:32:19;;;;;;;10.15;2.10;;;;;;;;;;5012237;28;97467;-73
2022/07/15 03:34:46;;;;;;;7.10;2.00;;;;;;;;;;5012935;28;95416;-74
2022/07/15 03:37:12;;;;;;;9.02;2.00;;;;;;;;;;5009228;28;96991;-74
2022/07/15 03:39:38;;;;;;;6.38;1.60;;;;;;;;;;5007056;28;96454;-74
2022/07/15 03:42:05;;;;;;;6.68;1.80;;;;;;;;;;4992522;28;95134;-74
2022/07/15 03:44:31;;;;;;;6.28;2.40;;;;;;;;;;4995448;28;96554;-74
2022/07/15 03:46:57;;;;;;;11.32;2.58;;;;;;;;;;5002186;28;95861;-73
2022/07/15 03:49:24;;;;;;;6.15;1.80;;;;;;;;;;5011451;28;97108;-73
2022/07/15 03:51:50;;;;;;;5.47;1.67;;;;;;;;;;5012407;28;97447;-75
2022/07/15 19:53:21;;;;;;;3.75;1.10;;;;;;;;;;5051773;27;1301315;-75
2022/07/15 19:55:48;;;;;;;2.58;1.40;;;;;;;;;;5088784;27;97294;-74
2022/07/15 19:58:14;;;;;;;3.08;1.27;;;;;;;;;;5087847;27;95347;-74
2022/07/15 20:00:42;;;;;;;2.90;1.30;;;;;;;;;;5085938;27;96788;-74
2022/07/15 20:03:14;;;;;;;2.22;1.25;;;;;;;;;;5069521;27;97371;-73
2022/07/15 20:05:40;;;;;;;3.65;1.33;;;;;;;;;;5078989;27;95659;-73
2022/07/15 20:08:07;;;;;;;4.47;1.10;;;;;;;;;;5069754;27;96882;-73
2022/07/15 20:10:33;;;;;;;2.63;1.30;;;;;;;;;;5087953;27;96975;-74
2022/07/15 20:13:00;;;;;;;3.05;1.40;;;;;;;;;;5091207;27;96006;-73
2022/07/15 20:15:26;;;;;;;3.35;1.48;;;;;;;;;;5087978;27;97682;-73
2022/07/15 20:17:53;;;;;;;3.58;1.20;;;;;;;;;;5085813;27;95228;-74
2022/07/15 20:20:20;;;;;;;3.00;1.30;;;;;;;;;;5085673;27;96688;-73
2022/07/15 20:22:47;;;;;;;1.90;1.30;;;;;;;;;;5080825;27;97271;-74
2022/07/15 20:25:14;;;;;;;3.80;1.60;;;;;;;;;;5085288;27;95266;-73
2022/07/15 20:27:40;;;;;;;2.75;1.48;;;;;;;;;;5085257;27;100114;-73
2022/07/15 20:30:07;;;;;;;4.43;1.80;;;;;;;;;;5075754;27;97363;-73
2022/07/15 20:32:34;;;;;;;4.22;1.30;;;;;;;;;;5086308;27;95668;-73
2022/07/15 20:35:00;;;;;;;3.78;1.85;;;;;;;;;;5090439;27;97204;-75
2022/07/15 20:37:27;;;;;;;4.57;1.77;;;;;;;;;;5089320;27;95144;-74
2022/07/15 20:39:53;;;;;;;2.72;1.60;;;;;;;;;;5087456;27;96773;-74
2022/07/15 20:42:20;;;;;;;3.65;1.70;;;;;;;;;;5078628;27;97373;-74
2022/07/15 20:44:47;;;;;;;4.30;1.77;;;;;;;;;;5051215;27;97218;-74
2022/07/15 20:47:14;;;;;;;3.03;1.52;;;;;;;;;;5067208;27;97142;-75
2022/07/15 20:49:40;;;;;;;2.25;1.50;;;;;;;;;;5081233;27;97337;-75
2022/07/15 20:52:07;;;;;;;3.25;1.50;;;;;;;;;;5082113;27;96278;-74
2022/07/15 20:54:33;;;;;;;3.38;1.30;;;;;;;;;;5068784;27;95559;-74
2022/07/15 20:56:59;;;;;;;4.10;1.50;;;;;;;;;;5072309;27;97642;-73
2022/07/15 20:59:26;;;;;;;5.00;2.17;;;;;;;;;;5064154;27;96783;-73
2022/07/15 21:01:52;;;;;;;3.05;1.48;;;;;;;;;;5087530;27;97665;-76
2022/07/15 21:04:19;;;;;;;2.70;1.50;;;;;;;;;;5065733;27;96605;-75
2022/07/15 21:06:45;;;;;;;4.28;1.80;;;;;;;;;;5054597;27;96678;-75
2022/07/15 21:09:12;;;;;;;2.97;1.35;;;;;;;;;;5054975;27;97478;-73
2022/07/15 21:11:38;;;;;;;4.30;1.50;;;;;;;;;;5068860;27;95623;-75
2022/07/15 21:14:04;;;;;;;2.00;1.50;;;;;;;;;;5047134;27;95764;-75
2022/07/15 21:16:31;;;;;;;4.75;1.90;;;;;;;;;;5068392;27;97312;-74
2022/07/15 21:18:58;;;;;;;3.65;1.83;;;;;;;;;;5077168;27;95299;-74
2022/07/15 21:21:30;;;;;;;10.82;1.90;;;;;;;;;;5067871;27;96543;-75
2022/07/15 21:23:56;;;;;;;4.70;2.15;;;;;;;;;;5069466;27;96683;-74
2022/07/15 21:29:07;;;;;;;7.47;3.00;;;;;;;;;;5057642;27;97376;-74
2022/07/15 21:31:34;;;;;;;3.85;2.00;;;;;;;;;;5072483;27;95545;-75
2022/07/15 21:34:00;;;;;;;7.13;1.55;;;;;;;;;;5063060;27;97060;-74
2022/07/15 21:36:26;;;;;;;4.78;1.63;;;;;;;;;;5074564;27;96716;-74
2022/07/15 21:38:53;;;;;;;3.65;1.50;;;;;;;;;;5055111;27;95238;-74
2022/07/15 21:41:19;;;;;;;7.15;1.90;;;;;;;;;;5071264;27;98917;-74
2022/07/15 21:43:45;;;;;;;2.35;1.30;;;;;;;;;;5049358;27;96120;-74
2022/07/15 21:46:12;;;;;;;2.35;1.52;;;;;;;;;;5065711;27;97044;-73
2022/07/15 21:48:38;;;;;;;1.95;1.40;;;;;;;;;;5060126;27;96233;-74
2022/07/15 21:51:05;;;;;;;4.38;1.50;;;;;;;;;;5070726;27;96909;-74
2022/07/15 21:53:32;;;;;;;4.28;1.50;;;;;;;;;;5069643;27;95686;-74
2022/07/15 21:55:58;;;;;;;4.47;1.63;;;;;;;;;;5060848;27;98092;-74
2022/07/15 21:58:25;;;;;;;2.78;1.60;;;;;;;;;;5061821;27;95061;-74
2022/07/15 22:00:51;;;;;;;3.13;1.77;;;;;;;;;;5069938;27;97264;-74
2022/07/15 22:03:22;;;;;;;4.00;1.80;;;;;;;;;;5067154;27;95630;-75
2022/07/15 22:05:48;;;;;;;3.67;1.70;;;;;;;;;;5054727;27;96662;-75
2022/07/15 22:08:15;;;;;;;4.55;1.67;;;;;;;;;;5064378;27;97578;-75
2022/07/15 22:10:42;;;;;;;3.20;1.67;;;;;;;;;;5067490;27;95478;-75
2022/07/15 22:13:08;;;;;;;3.25;1.80;;;;;;;;;;5074870;27;96678;-75
2022/07/15 22:15:35;;;;;;;6.75;2.00;;;;;;;;;;5034956;27;97714;-75
2022/07/15 22:18:01;;;;;;;6.45;1.95;;;;;;;;;;5057267;27;96728;-75
2022/07/15 22:20:28;;;;;;;5.90;1.80;;;;;;;;;;5065094;27;96902;-75
2022/07/15 22:22:54;;;;;;;3.25;1.70;;;;;;;;;;5072866;27;97789;-75
2022/07/15 22:25:21;;;;;;;6.93;2.00;;;;;;;;;;5057267;27;96503;-75
2022/07/15 22:27:47;;;;;;;5.18;1.73;;;;;;;;;;5064744;27;97329;-74
2022/07/15 22:30:13;;;;;;;3.10;1.80;;;;;;;;;;5056656;27;95409;-75
2022/07/15 22:32:43;;;;;;;3.20;1.63;;;;;;;;;;5069428;27;97406;-75
2022/07/15 22:35:09;;;;;;;4.80;1.83;;;;;;;;;;5057262;27;97250;-74
2022/07/15 22:37:36;;;;;;;3.90;1.98;;;;;;;;;;5073565;27;95257;-74
2022/07/15 22:40:02;;;;;;;4.63;2.70;;;;;;;;;;5068815;27;97107;-74
2022/07/15 22:42:29;;;;;;;5.72;2.95;;;;;;;;;;5065483;27;97647;-75
2022/07/15 22:44:55;;;;;;;8.00;2.90;;;;;;;;;;5077472;27;95302;-75
2022/07/15 22:47:22;;;;;;;5.18;3.08;;;;;;;;;;5064080;27;97334;-74
2022/07/15 22:49:48;;;;;;;5.43;2.50;;;;;;;;;;5067283;27;95151;-74
2022/07/15 22:52:14;;;;;;;4.72;2.25;;;;;;;;;;5062975;27;96744;-74
2022/07/15 22:54:41;;;;;;;4.20;2.15;;;;;;;;;;5060678;27;96543;-74
2022/07/15 22:57:07;;;;;;;3.55;1.85;;;;;;;;;;5069421;27;96980;-74
2022/07/15 22:59:34;;;;;;;3.08;1.80;;;;;;;;;;5053545;27;97406;-74
2022/07/15 23:02:00;;;;;;;3.88;2.22;;;;;;;;;;5064882;27;97581;-74
2022/07/15 23:04:29;;;;;;;3.20;1.77;;;;;;;;;;5074071;27;95329;-75
2022/07/15 23:06:56;;;;;;;4.70;2.30;;;;;;;;;;5061295;27;97076;-74
2022/07/15 23:09:23;;;;;;;11.18;2.60;;;;;;;;;;5049087;27;95495;-74
2022/07/15 23:11:49;;;;;;;5.88;2.50;;;;;;;;;;5067913;27;97076;-74
2022/07/15 23:14:15;;;;;;;5.78;2.53;;;;;;;;;;5062566;27;97668;-74
2022/07/15 23:16:42;;;;;;;5.32;2.50;;;;;;;;;;5069403;27;95431;-74
2022/07/15 23:19:08;;;;;;;6.68;2.50;;;;;;;;;;5070079;27;97712;-73
2022/07/15 23:21:35;;;;;;;5.40;2.55;;;;;;;;;;5038534;27;97443;-73
2022/07/15 23:24:01;;;;;;;3.92;1.98;;;;;;;;;;5060031;27;96262;-73
2022/07/15 23:26:27;;;;;;;7.25;2.00;;;;;;;;;;5064180;27;95797;-73
2022/07/15 23:28:54;;;;;;;5.18;2.00;;;;;;;;;;5071410;27;97485;-74
2022/07/15 23:31:20;;;;;;;4.95;2.25;;;;;;;;;;5038525;27;96880;-74
2022/07/15 23:34:06;;;;;;;4.13;2.33;;;;;;;;;;5070856;27;99719;-73
2022/07/15 23:36:33;;;;;;;6.95;2.20;;;;;;;;;;5059070;27;96150;-74
2022/07/15 23:38:59;;;;;;;6.75;2.45;;;;;;;;;;5061745;27;97120;-75
2022/07/15 23:41:25;;;;;;;4.72;2.47;;;;;;;;;;5055701;27;97282;-74
2022/07/15 23:43:52;;;;;;;7.28;2.63;;;;;;;;;;5067262;27;96880;-74
2022/07/15 23:46:18;;;;;;;9.05;2.97;;;;;;;;;;5063275;27;96880;-74
2022/07/15 23:48:45;;;;;;;7.25;3.58;;;;;;;;;;5066625;27;97371;-75
2022/07/15 23:51:12;;;;;;;7.40;2.95;;;;;;;;;;5068564;27;95339;-75
2022/07/15 23:53:38;;;;;;;4.95;2.42;;;;;;;;;;5057337;27;97366;-75
2022/07/15 23:56:09;;;;;;;5.85;2.20;;;;;;;;;;5064203;27;95227;-75
2022/07/15 23:58:35;;;;;;;3.92;2.40;;;;;;;;;;5061388;27;96841;-74
